CPX794 Details

Departure: Aeropuerto Internacional Ezeiza/Ministro Pistarini (SAEZ)
Arrival: Miami International Airport (KMIA)
Route: UCA UA301 URSUS FLIPR6


Current Weather Information
SAEZ 251100Z 31004KT CAVOK 09/07 Q1015 NOSIG
KMIA 251053Z VRB04KT 10SM SCT030 25/18 A3004 RMK AO2 SLP174 T02500178 $